Airfield :
LOGIN :

Register | Disclaimer

   EN    FR    IT 

 










Legend :    VFR   Marginal VFR   IFR   Intensive IFR   Very Intensive IFR
Visi :
Ceiling :
>= 8 km
>= 3000ft
5 to 8 km
1000 to 3000 ft
1500m to 5 km
500 to 1000 ft
800 to 1500m
200 to 500 ft
< 800m
< 200 ft
Symbols :   Thunderstorms  Fog  Heavy snow  Heavy precipitations  Wind > 20 kt
SIGMETs :     Misc.  Thunderstorms  Icing  Turbulence  Mountain Waves  Volcanic Ashes






- Airport Elevation : 16 ft
- IATA code : SDL


ESNN - Sundsvall-Härnösand

CURRENT METAR :
  • 200420Z AUTO 33004KT 9999 OVC040/// 06/04 Q1029 RESHUP

EXPIRED METARs :
  • 200350Z AUTO 30004KT 9999 FEW031/// OVC043/// 06/04 Q1029 REDZ
  • 200320Z AUTO 36003KT 300V080 9999 -DZ BKN038/// OVC048/// 06/04 Q1030
  • 200250Z AUTO 31004KT 290V350 9999 BKN040/// OVC051/// 06/04 Q1030
  • 200220Z AUTO 30004KT 9999 FEW031/// BKN043/// OVC057/// 06/04 Q1029
  • 200150Z AUTO 29004KT 9999 OVC038/// 06/04 Q1030

Expired Forecast.



MET'MAP, your aeronautical weather chart ! - Copyright ORBIFLY December 2007 - Disclaimer

ORBIFLY MET'MAP TEAM :

Programming & Development : Alexandra Zaïnal
Concept & original design : Baudouin d'Aumeries
Assistance for programming : Marc-Olivier Méhu
Technical & hardware support : Manuel Goepfert

Contact : metmap@orbifly.com




SOURCES & CREDITS :

   NOAA